Terminal Aerodrome Forecast
Issued by NWS Louisville, KY

Home | Current Version | Previous Version | Text Only | Print | Product List | Glossary On
Versions: 1 2 3 4 5 6 7 8 9 10 11 12 13 14 15 16 17 18 19
000
FTUS43 KLMK 271100 AAB
TAFLEX
TAF AMD
KLEX 271116Z 2711/2806 VRB03KT 5SM -SHRA VCTS BKN025CB
      TEMPO 2711/2713 3/4SM -TSRA BKN017CB
     FM271300 25004KT P6SM SCT020 BKN070
     FM271800 VRB05KT P6SM VCSH BKN050=

USA.gov is the U.S. government's official web portal to all federal, state and local government web resources and services.